createdAt,value
2022-11-22T00:01:48.591Z,-2.26
2022-11-22T00:04:17.503Z,-2.32
2022-11-22T00:06:46.952Z,-2.32
2022-11-22T00:09:15.345Z,-2.32
2022-11-22T00:11:43.800Z,-2.35
2022-11-22T00:14:16.945Z,-2.36
2022-11-22T00:16:45.388Z,-2.33
2022-11-22T00:19:20.071Z,-2.25
2022-11-22T00:21:48.480Z,-2.20
2022-11-22T00:24:16.845Z,-2.18
2022-11-22T00:26:45.367Z,-2.16
2022-11-22T00:29:14.949Z,-2.12
2022-11-22T00:31:43.384Z,-2.08
2022-11-22T00:34:11.833Z,-2.07
2022-11-22T00:36:40.185Z,-2.04
2022-11-22T00:39:08.542Z,-2.06
2022-11-22T00:41:36.908Z,-2.11
2022-11-22T00:44:30.620Z,-2.17
2022-11-22T00:46:59.086Z,-2.26
2022-11-22T00:49:27.964Z,-2.26
2022-11-22T00:51:56.561Z,-2.18
2022-11-22T00:54:25.011Z,-2.14
2022-11-22T00:56:53.446Z,-2.16
2022-11-22T00:59:21.828Z,-2.08
2022-11-22T01:01:50.278Z,-2.01
2022-11-22T01:04:18.691Z,-2.00
2022-11-22T01:06:47.259Z,-2.00
2022-11-22T01:09:22.182Z,-1.98
2022-11-22T01:11:51.565Z,-1.93
2022-11-22T01:14:20.865Z,-1.94
2022-11-22T01:16:49.373Z,-2.00
2022-11-22T01:19:17.793Z,-2.03
2022-11-22T01:21:46.231Z,-2.08
2022-11-22T01:24:14.674Z,-2.12
2022-11-22T01:26:43.147Z,-2.13
2022-11-22T01:29:11.594Z,-2.18
2022-11-22T01:31:40.001Z,-2.26
2022-11-22T01:34:08.436Z,-2.33
2022-11-22T01:36:36.904Z,-2.34
2022-11-22T01:39:05.336Z,-2.31
2022-11-22T01:41:33.833Z,-2.30
2022-11-22T01:44:29.580Z,-2.34
2022-11-22T01:47:11.086Z,-2.37
2022-11-22T01:49:48.410Z,-2.38
2022-11-22T01:52:20.108Z,-2.44
2022-11-22T01:54:57.541Z,-2.46
2022-11-22T01:57:30.428Z,-2.47
2022-11-22T02:00:04.829Z,-2.49
2022-11-22T02:02:35.198Z,-2.50
2022-11-22T02:05:10.127Z,-2.52
2022-11-22T02:07:53.142Z,-2.52
2022-11-22T02:10:25.618Z,-2.50
2022-11-22T02:12:58.308Z,-2.49
2022-11-22T02:15:26.904Z,-2.52
2022-11-22T02:17:57.813Z,-2.52
2022-11-22T02:20:26.236Z,-2.50
2022-11-22T02:23:09.524Z,-2.46
2022-11-22T02:25:37.892Z,-2.39
2022-11-22T02:28:06.705Z,-2.32
2022-11-22T02:30:37.116Z,-2.32
2022-11-22T02:33:05.514Z,-2.36
2022-11-22T02:35:34.759Z,-2.37
2022-11-22T02:38:22.333Z,-2.34
2022-11-22T02:40:56.370Z,-2.32
2022-11-22T02:43:40.473Z,-2.30
2022-11-22T02:46:12.201Z,-2.34
2022-11-22T02:48:44.749Z,-2.37
2022-11-22T02:51:17.329Z,-2.40
2022-11-22T02:53:47.795Z,-2.39
2022-11-22T02:56:17.362Z,-2.42
2022-11-22T02:58:46.268Z,-2.45
2022-11-22T03:01:14.783Z,-2.45
2022-11-22T03:03:43.212Z,-2.45
2022-11-22T03:06:11.762Z,-2.45
2022-11-22T03:08:40.164Z,-2.43
2022-11-22T03:11:08.628Z,-2.42
2022-11-22T03:13:37.107Z,-2.40
2022-11-22T03:16:05.804Z,-2.37
2022-11-22T03:18:35.364Z,-2.34
2022-11-22T03:21:09.024Z,-2.32
2022-11-22T03:23:37.505Z,-2.32
2022-11-22T03:26:10.352Z,-2.35
2022-11-22T03:28:38.785Z,-2.35
2022-11-22T03:31:08.366Z,-2.36
2022-11-22T03:33:36.762Z,-2.37
2022-11-22T03:36:05.509Z,-2.39
2022-11-22T03:38:35.598Z,-2.43
2022-11-22T03:41:03.941Z,-2.45
2022-11-22T03:44:29.740Z,-2.46
2022-11-22T03:46:58.099Z,-2.48
2022-11-22T03:49:26.538Z,-2.49
2022-11-22T03:51:54.988Z,-2.49
2022-11-22T03:54:23.348Z,-2.48
2022-11-22T03:56:51.730Z,-2.47
2022-11-22T03:59:20.130Z,-2.49
2022-11-22T04:01:48.513Z,-2.50
2022-11-22T04:04:17.052Z,-2.48
2022-11-22T04:06:45.428Z,-2.46
2022-11-22T04:09:13.844Z,-2.47
2022-11-22T04:11:42.286Z,-2.48
2022-11-22T04:14:31.562Z,-2.51
2022-11-22T04:16:59.920Z,-2.52
2022-11-22T04:19:28.702Z,-2.52
2022-11-22T04:21:57.454Z,-2.51
2022-11-22T04:24:44.172Z,-2.53
2022-11-22T04:27:12.533Z,-2.56
2022-11-22T04:29:40.902Z,-2.56
2022-11-22T04:32:29.622Z,-2.56
2022-11-22T04:34:58.083Z,-2.56
2022-11-22T04:37:26.416Z,-2.58
2022-11-22T04:39:54.807Z,-2.60
2022-11-22T04:43:13.369Z,-2.61
2022-11-22T04:45:42.039Z,-2.61
2022-11-22T04:48:12.631Z,-2.59
2022-11-22T04:51:00.646Z,-2.56
2022-11-22T04:53:30.165Z,-2.54
2022-11-22T04:55:58.855Z,-2.56
2022-11-22T04:58:27.234Z,-2.58
2022-11-22T05:00:55.629Z,-2.60
2022-11-22T05:03:24.136Z,-2.62
2022-11-22T05:05:52.566Z,-2.62
2022-11-22T05:08:21.393Z,-2.59
2022-11-22T05:10:58.760Z,-2.56
2022-11-22T05:13:28.700Z,-2.54
2022-11-22T05:15:58.009Z,-2.55
2022-11-22T05:18:28.671Z,-2.54
2022-11-22T05:20:57.685Z,-2.52
2022-11-22T05:23:44.751Z,-2.49
2022-11-22T05:26:13.117Z,-2.52
2022-11-22T05:28:41.586Z,-2.58
2022-11-22T05:31:12.469Z,-2.61
2022-11-22T05:33:42.897Z,-2.61
2022-11-22T05:36:12.751Z,-2.63
2022-11-22T05:38:41.258Z,-2.66
2022-11-22T05:41:13.282Z,-2.67
2022-11-22T05:43:57.812Z,-2.66
2022-11-22T05:46:30.944Z,-2.67
2022-11-22T05:48:59.431Z,-2.69
2022-11-22T05:51:34.826Z,-2.68
2022-11-22T05:54:04.379Z,-2.68
2022-11-22T05:56:32.820Z,-2.68
2022-11-22T05:59:01.361Z,-2.70
2022-11-22T06:01:29.672Z,-2.70
2022-11-22T06:03:58.576Z,-2.71
2022-11-22T06:06:27.000Z,-2.72
2022-11-22T06:08:55.519Z,-2.72
2022-11-22T06:11:26.909Z,-2.71
2022-11-22T06:13:58.360Z,-2.70
2022-11-22T06:16:27.933Z,-2.71
2022-11-22T06:18:57.266Z,-2.71
2022-11-22T06:21:26.875Z,-2.71
2022-11-22T06:23:56.146Z,-2.71
2022-11-22T06:26:26.823Z,-2.72
2022-11-22T06:28:55.752Z,-2.72
2022-11-22T06:31:26.635Z,-2.73
2022-11-22T06:33:57.923Z,-2.73
2022-11-22T06:36:35.676Z,-2.73
2022-11-22T06:39:05.066Z,-2.75
2022-11-22T06:41:36.869Z,-2.74
2022-11-22T06:44:08.229Z,-2.74
2022-11-22T06:46:38.059Z,-2.74
2022-11-22T06:49:06.509Z,-2.72
2022-11-22T06:51:35.134Z,-2.70
2022-11-22T06:54:03.528Z,-2.68
2022-11-22T06:56:37.021Z,-2.68
2022-11-22T06:59:06.896Z,-2.66
2022-11-22T07:01:36.493Z,-2.66
2022-11-22T07:04:05.580Z,-2.67
2022-11-22T07:06:36.313Z,-2.65
2022-11-22T07:09:07.899Z,-2.59
2022-11-22T07:11:36.545Z,-2.52
2022-11-22T07:14:08.682Z,-2.49
2022-11-22T07:16:39.193Z,-2.48
2022-11-22T07:19:08.408Z,-2.44
2022-11-22T07:21:37.887Z,-2.40
2022-11-22T07:24:07.570Z,-2.38
2022-11-22T07:26:36.031Z,-2.37
2022-11-22T07:29:04.768Z,-2.36
2022-11-22T07:31:33.411Z,-2.37
2022-11-22T07:34:01.903Z,-2.41
2022-11-22T07:36:30.671Z,-2.46
2022-11-22T07:38:59.200Z,-2.48
2022-11-22T07:41:27.589Z,-2.48
2022-11-22T07:43:56.212Z,-2.44
2022-11-22T07:46:30.004Z,-2.42
2022-11-22T07:48:58.534Z,-2.40
2022-11-22T07:51:27.306Z,-2.39
2022-11-22T07:53:56.997Z,-2.33
2022-11-22T07:56:25.569Z,-2.32
2022-11-22T07:58:53.939Z,-2.30
2022-11-22T08:01:22.688Z,-2.30
2022-11-22T08:03:51.232Z,-2.30
2022-11-22T08:06:19.549Z,-2.31
2022-11-22T08:08:48.023Z,-2.33
2022-11-22T08:11:16.862Z,-2.36
2022-11-22T08:13:45.292Z,-2.37
2022-11-22T08:16:16.257Z,-2.33
2022-11-22T08:18:49.398Z,-2.28
2022-11-22T08:21:19.104Z,-2.24
2022-11-22T08:23:48.571Z,-2.21
2022-11-22T08:26:18.545Z,-2.17
2022-11-22T08:28:47.020Z,-2.16
2022-11-22T08:31:20.182Z,-2.07
2022-11-22T08:33:49.110Z,-2.03
2022-11-22T08:36:17.569Z,-2.03
2022-11-22T08:38:45.953Z,-2.00
2022-11-22T08:41:14.539Z,-1.98
2022-11-22T08:43:43.132Z,-1.97
2022-11-22T08:46:11.817Z,-1.94
2022-11-22T08:48:40.246Z,-1.89
2022-11-22T08:51:10.494Z,-1.89
2022-11-22T08:53:41.300Z,-1.84
2022-11-22T08:56:13.540Z,-1.76
2022-11-22T08:58:42.591Z,-1.63
2022-11-22T09:01:16.865Z,-1.55
2022-11-22T09:03:45.825Z,-1.59
2022-11-22T09:09:43.168Z,-1.57
2022-11-22T09:11:55.357Z,-1.50
2022-11-22T09:14:23.718Z,-1.44
2022-11-22T09:16:52.215Z,-1.43
2022-11-22T09:19:20.530Z,-1.38
2022-11-22T09:21:49.114Z,-1.35
2022-11-22T09:24:17.513Z,-1.31
2022-11-22T09:26:45.863Z,-1.24
2022-11-22T09:29:16.045Z,-1.16
2022-11-22T09:31:44.583Z,-1.09
2022-11-22T09:34:12.915Z,-1.04
2022-11-22T09:36:41.398Z,-1.01
2022-11-22T09:39:09.945Z,-0.99
2022-11-22T09:41:50.246Z,-0.94
2022-11-22T09:44:45.483Z,-0.93
2022-11-22T09:47:34.975Z,-0.92
2022-11-22T09:50:31.488Z,-0.90
2022-11-22T09:53:05.187Z,-0.84
2022-11-22T09:55:52.677Z,-0.82
2022-11-22T09:58:51.980Z,-0.76
2022-11-22T10:01:29.092Z,-0.78
2022-11-22T10:04:29.266Z,-0.75
2022-11-22T10:07:06.523Z,-0.69
2022-11-22T10:09:51.552Z,-0.62
2022-11-22T10:12:23.397Z,-0.54
2022-11-22T10:15:30.963Z,-0.43
2022-11-22T10:18:11.979Z,-0.39
2022-11-22T10:20:48.461Z,-0.41
2022-11-22T10:23:26.137Z,-0.42
2022-11-22T10:25:59.906Z,-0.45
2022-11-22T10:29:07.297Z,-0.47
2022-11-22T10:31:44.784Z,-0.54
2022-11-22T10:34:35.343Z,-0.52
2022-11-22T10:37:28.450Z,-0.49
2022-11-22T10:39:59.573Z,-0.45
2022-11-22T10:43:20.780Z,-0.45
2022-11-22T10:46:17.010Z,-0.42
2022-11-22T10:49:00.086Z,-0.46
2022-11-22T10:51:58.008Z,-0.44
2022-11-22T10:54:36.117Z,-0.44
2022-11-22T10:57:19.679Z,-0.48
2022-11-22T10:59:55.540Z,-0.52
2022-11-22T11:02:32.970Z,-0.53
2022-11-22T11:05:05.845Z,-0.47
2022-11-22T11:07:35.062Z,-0.46
2022-11-22T11:10:27.547Z,-0.41
2022-11-22T11:13:14.843Z,-0.37
2022-11-22T11:15:52.702Z,-0.40
2022-11-22T11:19:01.586Z,-0.39
2022-11-22T11:21:30.053Z,-0.36
2022-11-22T11:23:58.491Z,-0.29
2022-11-22T11:26:34.863Z,-0.27
2022-11-22T11:29:18.454Z,-0.25
2022-11-22T11:31:52.542Z,-0.23
2022-11-22T11:34:23.073Z,-0.22
2022-11-22T11:36:54.627Z,-0.25
2022-11-22T11:39:45.957Z,-0.24
2022-11-22T11:42:32.202Z,-0.21
2022-11-22T11:45:33.392Z,-0.19
2022-11-22T11:48:01.910Z,-0.17
2022-11-22T11:50:33.296Z,-0.17
2022-11-22T11:53:07.211Z,-0.17
2022-11-22T11:55:36.835Z,-0.12
2022-11-22T11:58:19.949Z,-0.10
2022-11-22T12:00:48.534Z,-0.12
2022-11-22T12:03:20.112Z,-0.13
2022-11-22T12:05:48.592Z,-0.11
2022-11-22T12:08:31.385Z,-0.07
2022-11-22T12:11:06.498Z,-0.04
2022-11-22T12:16:54.853Z,-0.05
2022-11-22T12:19:29.288Z,-0.03
2022-11-22T12:22:48.095Z,-0.02
2022-11-22T12:25:32.647Z,-0.03
2022-11-22T12:28:23.735Z,-0.03
2022-11-22T12:31:01.348Z,0.01
2022-11-22T12:33:40.310Z,0.01
2022-11-22T12:36:41.287Z,0.03
2022-11-22T12:39:16.223Z,0.07
2022-11-22T12:41:48.836Z,0.09
2022-11-22T12:44:21.042Z,0.15
2022-11-22T12:46:56.765Z,0.18
2022-11-22T12:49:48.173Z,0.20
2022-11-22T12:52:16.465Z,0.26
2022-11-22T12:55:09.646Z,0.28
2022-11-22T12:57:46.859Z,0.28
2022-11-22T13:00:19.060Z,0.31
2022-11-22T13:02:54.510Z,0.35
2022-11-22T13:05:30.835Z,0.36
2022-11-22T13:08:35.704Z,0.41
2022-11-22T13:11:03.930Z,0.44
2022-11-22T13:13:42.657Z,0.41
2022-11-22T13:16:13.070Z,0.40
2022-11-22T13:18:56.716Z,0.38
2022-11-22T13:21:50.107Z,0.37
2022-11-22T13:24:46.715Z,0.38
2022-11-22T13:27:25.325Z,0.36
2022-11-22T13:29:58.690Z,0.38
2022-11-22T13:32:34.969Z,0.39
2022-11-22T13:35:12.459Z,0.38
2022-11-22T13:37:53.780Z,0.39
2022-11-22T13:40:30.414Z,0.40
2022-11-22T13:43:21.208Z,0.41
2022-11-22T13:46:02.069Z,0.44
2022-11-22T13:48:42.516Z,0.48
2022-11-22T13:51:15.638Z,0.50
2022-11-22T13:53:46.198Z,0.55
2022-11-22T13:56:17.528Z,0.57
2022-11-22T13:58:51.296Z,0.57
2022-11-22T14:01:40.540Z,0.55
2022-11-22T14:04:17.769Z,0.56
2022-11-22T14:06:49.771Z,0.56
2022-11-22T14:09:40.809Z,0.57
2022-11-22T14:12:31.984Z,0.56
2022-11-22T14:15:29.875Z,0.55
2022-11-22T14:18:07.047Z,0.54
2022-11-22T14:20:40.288Z,0.53
2022-11-22T14:23:11.616Z,0.52
2022-11-22T14:25:43.004Z,0.52
2022-11-22T14:28:20.587Z,0.52
2022-11-22T14:30:55.595Z,0.49
2022-11-22T14:33:31.220Z,0.47
2022-11-22T14:36:09.852Z,0.47
2022-11-22T14:38:40.417Z,0.48
2022-11-22T14:41:27.364Z,0.48
2022-11-22T14:44:07.650Z,0.49
2022-11-22T14:46:54.951Z,0.47
2022-11-22T14:49:33.584Z,0.46
2022-11-22T14:52:02.768Z,0.45
2022-11-22T14:54:48.800Z,0.43
2022-11-22T14:57:21.217Z,0.44
2022-11-22T15:00:18.470Z,0.46
2022-11-22T15:03:07.750Z,0.45
2022-11-22T15:09:10.284Z,0.41
2022-11-22T15:09:16.278Z,0.43
2022-11-22T15:11:52.619Z,0.42
2022-11-22T15:14:30.267Z,0.42
2022-11-22T15:58:14.098Z,0.50
2022-11-22T16:00:45.438Z,0.53
2022-11-22T16:03:27.254Z,0.54
2022-11-22T16:06:11.780Z,0.53
2022-11-22T16:08:58.319Z,0.53
2022-11-22T16:11:31.831Z,0.52
2022-11-22T16:14:01.292Z,0.53
2022-11-22T16:16:35.245Z,0.52
2022-11-22T16:19:24.878Z,0.52
2022-11-22T16:22:02.099Z,0.52
2022-11-22T16:24:32.740Z,0.53
2022-11-22T16:27:12.698Z,0.52
2022-11-22T16:29:51.838Z,0.53
2022-11-22T16:32:20.837Z,0.53
2022-11-22T16:35:21.762Z,0.55
2022-11-22T16:37:48.254Z,0.56
2022-11-22T16:40:18.676Z,0.56
2022-11-22T16:42:48.878Z,0.57
2022-11-22T16:45:20.773Z,0.57
2022-11-22T16:48:03.904Z,0.56
2022-11-22T16:50:41.949Z,0.56
2022-11-22T16:53:16.840Z,0.56
2022-11-22T16:55:45.651Z,0.56
2022-11-22T16:58:17.818Z,0.56
2022-11-22T17:00:50.878Z,0.56
2022-11-22T17:03:30.557Z,0.56
2022-11-22T17:05:59.432Z,0.57
2022-11-22T17:08:29.340Z,0.57
2022-11-22T17:10:58.552Z,0.57
2022-11-22T17:13:29.420Z,0.57
2022-11-22T17:15:59.219Z,0.58
2022-11-22T17:18:29.446Z,0.57
2022-11-22T17:21:00.155Z,0.57
2022-11-22T17:23:43.535Z,0.55
2022-11-22T17:26:13.281Z,0.54
2022-11-22T17:28:43.112Z,0.55
2022-11-22T17:31:20.167Z,0.54
2022-11-22T17:33:52.740Z,0.53
2022-11-22T17:36:35.782Z,0.52
2022-11-22T17:41:50.984Z,0.52
2022-11-22T17:45:02.851Z,0.51
2022-11-22T17:47:33.258Z,0.50
2022-11-22T17:50:03.725Z,0.51
2022-11-22T17:52:33.490Z,0.50
2022-11-22T17:55:06.278Z,0.48
2022-11-22T17:57:37.956Z,0.47
2022-11-22T18:00:10.941Z,0.45
2022-11-22T18:02:47.043Z,0.43
2022-11-22T18:05:17.377Z,0.43
2022-11-22T18:07:48.319Z,0.42
2022-11-22T18:10:17.959Z,0.40
2022-11-22T18:13:13.516Z,0.39
2022-11-22T18:15:39.550Z,0.38
2022-11-22T18:18:21.938Z,0.37
2022-11-22T18:21:01.670Z,0.38
2022-11-22T18:23:36.737Z,0.36
2022-11-22T18:29:39.094Z,0.32
2022-11-22T18:31:56.072Z,0.30
2022-11-22T18:34:26.600Z,0.30
2022-11-22T18:37:01.277Z,0.30
2022-11-22T18:39:39.273Z,0.30
2022-11-22T18:42:15.847Z,0.30
2022-11-22T18:44:46.367Z,0.30
2022-11-22T18:47:16.703Z,0.31
2022-11-22T18:52:50.212Z,0.34
2022-11-22T18:55:20.521Z,0.34
2022-11-22T18:58:03.706Z,0.34
2022-11-22T19:00:33.365Z,0.34
2022-11-22T19:03:05.848Z,0.33
2022-11-22T19:05:35.495Z,0.32
2022-11-22T19:08:04.144Z,0.31
2022-11-22T19:10:34.184Z,0.32
2022-11-22T19:13:04.582Z,0.36
2022-11-22T19:15:36.472Z,0.38
2022-11-22T19:18:10.804Z,0.38
2022-11-22T19:20:54.705Z,0.37
2022-11-22T19:23:24.782Z,0.37
2022-11-22T19:25:54.667Z,0.36
2022-11-22T19:28:32.704Z,0.36
2022-11-22T19:31:10.673Z,0.36
2022-11-22T19:33:43.445Z,0.36
2022-11-22T19:36:18.416Z,0.36
2022-11-22T19:38:48.611Z,0.37
2022-11-22T19:41:22.526Z,0.38
2022-11-22T19:43:52.923Z,0.38
2022-11-22T19:46:24.320Z,0.39
2022-11-22T19:48:57.375Z,0.40
2022-11-22T19:51:29.909Z,0.41
2022-11-22T19:54:05.390Z,0.42
2022-11-22T19:56:39.126Z,0.42
2022-11-22T19:59:16.062Z,0.42
2022-11-22T20:01:47.068Z,0.43
2022-11-22T20:04:17.792Z,0.44
2022-11-22T20:06:50.120Z,0.45
2022-11-22T20:09:30.097Z,0.47
2022-11-22T20:12:00.099Z,0.49
2022-11-22T20:14:30.328Z,0.49
2022-11-22T20:17:00.616Z,0.48
2022-11-22T20:19:34.205Z,0.47
2022-11-22T20:22:04.507Z,0.47
2022-11-22T20:24:35.236Z,0.48
2022-11-22T20:27:06.200Z,0.47
2022-11-22T20:29:38.169Z,0.48
2022-11-22T20:32:08.438Z,0.48
2022-11-22T20:34:37.741Z,0.48
2022-11-22T20:37:07.792Z,0.49
2022-11-22T20:39:38.463Z,0.49
2022-11-22T20:42:32.973Z,0.49
2022-11-22T20:44:59.274Z,0.49
2022-11-22T20:47:31.420Z,0.49
2022-11-22T20:50:00.912Z,0.50
2022-11-22T20:52:30.512Z,0.51
2022-11-22T20:55:04.807Z,0.51
2022-11-22T20:57:35.703Z,0.52
2022-11-22T21:00:05.547Z,0.52
2022-11-22T21:02:35.488Z,0.53
2022-11-22T21:05:04.468Z,0.54
2022-11-22T21:07:34.338Z,0.54
2022-11-22T21:10:05.233Z,0.55
2022-11-22T21:12:34.030Z,0.54
2022-11-22T21:15:03.113Z,0.54
2022-11-22T21:17:56.045Z,0.54
2022-11-22T21:20:21.837Z,0.54
2022-11-22T21:22:54.364Z,0.53
2022-11-22T21:25:23.325Z,0.54
2022-11-22T21:27:52.456Z,0.53
2022-11-22T21:30:22.034Z,0.54
2022-11-22T21:32:51.022Z,0.53
2022-11-22T21:35:19.462Z,0.54
2022-11-22T21:37:47.891Z,0.54
2022-11-22T21:40:16.355Z,0.53
2022-11-22T21:43:10.200Z,0.54
2022-11-22T21:45:38.681Z,0.54
2022-11-22T21:48:07.888Z,0.53
2022-11-22T21:50:36.326Z,0.53
2022-11-22T21:53:05.334Z,0.53
2022-11-22T21:55:33.794Z,0.54
2022-11-22T21:58:02.456Z,0.55
2022-11-22T22:00:30.980Z,0.55
2022-11-22T22:02:59.343Z,0.56
2022-11-22T22:05:27.860Z,0.56
2022-11-22T22:07:56.250Z,0.57
2022-11-22T22:10:24.752Z,0.57
2022-11-22T22:12:53.153Z,0.58
2022-11-22T22:15:21.648Z,0.58
2022-11-22T22:17:53.867Z,0.59
2022-11-22T22:20:23.172Z,0.60
2022-11-22T22:22:51.609Z,0.61
2022-11-22T22:25:20.010Z,0.61
2022-11-22T22:27:48.531Z,0.60
2022-11-22T22:30:17.208Z,0.60
2022-11-22T22:32:45.536Z,0.60
2022-11-22T22:35:13.899Z,0.59
2022-11-22T22:37:42.284Z,0.60
2022-11-22T22:40:11.023Z,0.59
2022-11-22T22:42:40.546Z,0.60
2022-11-22T22:45:11.257Z,0.60
2022-11-22T22:47:39.701Z,0.60
2022-11-22T22:50:08.378Z,0.60
2022-11-22T22:52:36.918Z,0.59
2022-11-22T22:55:05.755Z,0.59
2022-11-22T22:57:34.158Z,0.59
2022-11-22T23:00:02.713Z,0.59
2022-11-22T23:02:31.122Z,0.59
2022-11-22T23:05:13.287Z,0.59
2022-11-22T23:07:44.009Z,0.60
2022-11-22T23:10:12.641Z,0.59
2022-11-22T23:12:41.186Z,0.59
2022-11-22T23:15:10.055Z,0.60
2022-11-22T23:17:38.386Z,0.60
2022-11-22T23:20:07.272Z,0.60
2022-11-22T23:22:35.656Z,0.60
2022-11-22T23:25:04.365Z,0.59
2022-11-22T23:27:33.167Z,0.59
2022-11-22T23:30:01.635Z,0.59
2022-11-22T23:32:31.845Z,0.58
2022-11-22T23:35:00.255Z,0.58
2022-11-22T23:37:28.633Z,0.57
2022-11-22T23:39:57.102Z,0.57
2022-11-22T23:42:25.436Z,0.56
2022-11-22T23:45:19.095Z,0.56
2022-11-22T23:47:51.099Z,0.56
2022-11-22T23:50:20.363Z,0.57
2022-11-22T23:52:54.394Z,0.57
2022-11-22T23:55:22.748Z,0.57
2022-11-22T23:57:51.158Z,0.58
